Cuneyt Solakoglu — TCTN4 — position and weather

sailwx.info

Track history (hours):
 
Tides and Currents Weather Stations Pressure Air Temp Water Temp Dewpoint Dewpoint Depression Visibility Wind Speed Wind Dir Waves Ship Positions

Cuneyt Solakoglu

Last reported at 2016-Apr-30 04:23 UTC. Time now 2016-Apr-30 18:44 UTC.
Position N 37°23' E 020°60'.

Length 193 m; draft 6.8 m.

Type: Ship (hazmat cat A). MMSI: 271002676.

Date/timePositionNaut miles runAvg speedWind from/ knotsBaromVisibWave heightAir tempDewpointWater temp
2016-Apr-30 04:23N 37°23' E 020°60'12315.7
2016-Apr-29 20:33N 36°38' E 023°23'1919.2
2016-Apr-29 19:33N 36°54' E 023°36'1919.1
2016-Apr-29 18:33N 37°11' E 023°49'1919.1
2016-Apr-29 17:33N 37°26' E 024°02'2219.1
2016-Apr-29 16:24N 37°44' E 024°18'5718.8
2016-Apr-29 13:23N 38°32' E 024°57'17517.4
2016-Apr-29 03:17N 40°41' E 027°31'1418.8
2016-Apr-29 02:33N 40°42' E 027°49'3818.8
2016-Apr-29 00:33N 40°42' E 028°39'1919.3
2016-Apr-28 23:34N 40°47' E 029°03'1110.9
2016-Apr-28 22:34N 40°51' E 029°16'0 0.0
2016-Apr-28 21:34N 40°51' E 029°16'0 0.0
2016-Apr-28 20:34N 40°51' E 029°16'0 0.0
2016-Apr-28 19:34N 40°51' E 029°16'0 0.0
2016-Apr-28 18:33N 40°51' E 029°16'0 0.0
2016-Apr-28 17:34N 40°51' E 029°16'0 0.0
2016-Apr-28 16:34N 40°51' E 029°16'0 0.0
2016-Apr-28 15:34N 40°51' E 029°16'2 1.6
2016-Apr-28 14:33N 40°51' E 029°14'1818.1
2016-Apr-28 13:33N 40°44' E 028°52'2018.2
2016-Apr-28 12:29N 40°38' E 028°28'2618.9
2016-Apr-28 11:08N 40°38' E 027°54'1018.3
2016-Apr-28 10:33N 40°41' E 027°41'9915.8
2016-Apr-28 04:16N 39°48' E 025°51'10718.7
2016-Apr-27 22:32N 38°13' E 024°48'1818.4
2016-Apr-27 21:33N 37°57' E 024°37'1818.5
2016-Apr-27 20:33N 37°40' E 024°28'1818.4
2016-Apr-27 19:33N 37°25' E 024°15'1918.7
2016-Apr-27 18:33N 37°10' E 024°00'1918.7
2016-Apr-27 17:33N 36°55' E 023°46'1919.0
2016-Apr-27 16:33N 36°40' E 023°31'20016.0
2016-Apr-27 04:03N 38°29' E 019°60'  
2016-Apr-24 03:10N 37°53' E 020°31'15615.9
2016-Apr-23 17:19N 36°33' E 023°19'1418.2
2016-Apr-23 16:33N 36°45' E 023°29'4118.2
2016-Apr-23 14:20N 37°19' E 023°56'25817.3
2016-Apr-22 23:24N 40°40' E 027°24'1518.0
2016-Apr-22 22:33N 40°43' E 027°44'1817.9
2016-Apr-22 21:32N 40°40' E 028°08'3718.4
2016-Apr-22 19:32N 40°45' E 028°56'1615.9
2016-Apr-22 18:30N 40°51' E 029°16'0 0.0
2016-Apr-22 17:28N 40°51' E 029°16'0 0.0
2016-Apr-22 16:27N 40°51' E 029°16'0 0.0
2016-Apr-22 15:33N 40°51' E 029°16'0 0.0
2016-Apr-22 14:32N 40°51' E 029°16'0 0.0
2016-Apr-22 13:32N 40°51' E 029°16'0 0.0
2016-Apr-22 12:32N 40°51' E 029°16'0 0.0
2016-Apr-22 11:31N 40°51' E 029°16'0 0.0
2016-Apr-22 10:31N 40°51' E 029°16'0 0.0
2016-Apr-22 09:30N 40°51' E 029°16'0 0.0
2016-Apr-22 08:30N 40°51' E 029°16'0 0.0
2016-Apr-22 07:29N 40°51' E 029°16'0 0.0
2016-Apr-22 06:29N 40°51' E 029°16'0 0.0
2016-Apr-22 05:29N 40°51' E 029°16'0 0.0
2016-Apr-22 04:28N 40°51' E 029°16'0 0.0
2016-Apr-22 03:28N 40°51' E 029°16'0 0.0
2016-Apr-22 02:33N 40°51' E 029°16'0 0.0
2016-Apr-22 01:33N 40°51' E 029°16'0 0.0
2016-Apr-22 00:32N 40°51' E 029°16'0 0.0
2016-Apr-21 23:32N 40°51' E 029°16'0 0.0
2016-Apr-21 22:31N 40°51' E 029°16'0 0.0
2016-Apr-21 21:31N 40°51' E 029°16'0 0.0
2016-Apr-21 20:31N 40°51' E 029°16'0 0.0
2016-Apr-21 19:30N 40°51' E 029°16'0 0.0
2016-Apr-21 18:30N 40°51' E 029°16'0 0.1
2016-Apr-21 15:16N 40°51' E 029°16'1114.7
2016-Apr-21 14:33N 40°47' E 029°03'26215.2
2016-Apr-20 21:22N 38°01' E 024°41'1417.2
2016-Apr-20 20:34N 37°49' E 024°33'2317.4
2016-Apr-20 19:15N 37°29' E 024°19'1217.6
2016-Apr-20 18:32N 37°19' E 024°09'1717.8
2016-Apr-20 17:34N 37°05' E 023°56'2518.1
2016-Apr-20 16:10N 36°45' E 023°37'17915.4
2016-Apr-20 04:31N 38°08' E 020°17'  
Track history (hours):
 
Tides and Currents Weather Stations Pressure Air Temp Water Temp Dewpoint Dewpoint Depression Visibility Wind Speed Wind Dir Waves Ship Positions

Cuneyt Solakoglu

Last reported at 2016-Apr-30 04:23 UTC. Time now 2016-Apr-30 18:44 UTC.
Position N 37°23' E 020°60'.

Length 193 m; draft 6.8 m.

Type: Ship (hazmat cat A). MMSI: 271002676.

Date/timePositionNaut miles runAvg speedWind from/ knotsBaromVisibWave heightAir tempDewpointWater temp
2016-Apr-30 04:23N 37°23' E 020°60'12315.7
2016-Apr-29 20:33N 36°38' E 023°23'1919.2
2016-Apr-29 19:33N 36°54' E 023°36'1919.1
2016-Apr-29 18:33N 37°11' E 023°49'1919.1
2016-Apr-29 17:33N 37°26' E 024°02'2219.1
2016-Apr-29 16:24N 37°44' E 024°18'5718.8
2016-Apr-29 13:23N 38°32' E 024°57'17517.4
2016-Apr-29 03:17N 40°41' E 027°31'1418.8
2016-Apr-29 02:33N 40°42' E 027°49'3818.8
2016-Apr-29 00:33N 40°42' E 028°39'1919.3
2016-Apr-28 23:34N 40°47' E 029°03'1110.9
2016-Apr-28 22:34N 40°51' E 029°16'0 0.0
2016-Apr-28 21:34N 40°51' E 029°16'0 0.0
2016-Apr-28 20:34N 40°51' E 029°16'0 0.0
2016-Apr-28 19:34N 40°51' E 029°16'0 0.0
2016-Apr-28 18:33N 40°51' E 029°16'0 0.0
2016-Apr-28 17:34N 40°51' E 029°16'0 0.0
2016-Apr-28 16:34N 40°51' E 029°16'0 0.0
2016-Apr-28 15:34N 40°51' E 029°16'2 1.6
2016-Apr-28 14:33N 40°51' E 029°14'1818.1
2016-Apr-28 13:33N 40°44' E 028°52'2018.2
2016-Apr-28 12:29N 40°38' E 028°28'2618.9
2016-Apr-28 11:08N 40°38' E 027°54'1018.3
2016-Apr-28 10:33N 40°41' E 027°41'9915.8
2016-Apr-28 04:16N 39°48' E 025°51'10718.7
2016-Apr-27 22:32N 38°13' E 024°48'1818.4
2016-Apr-27 21:33N 37°57' E 024°37'1818.5
2016-Apr-27 20:33N 37°40' E 024°28'1818.4
2016-Apr-27 19:33N 37°25' E 024°15'1918.7
2016-Apr-27 18:33N 37°10' E 024°00'1918.7
2016-Apr-27 17:33N 36°55' E 023°46'1919.0
2016-Apr-27 16:33N 36°40' E 023°31'20016.0
2016-Apr-27 04:03N 38°29' E 019°60'  
2016-Apr-24 03:10N 37°53' E 020°31'15615.9
2016-Apr-23 17:19N 36°33' E 023°19'1418.2
2016-Apr-23 16:33N 36°45' E 023°29'4118.2
2016-Apr-23 14:20N 37°19' E 023°56'25817.3
2016-Apr-22 23:24N 40°40' E 027°24'1518.0
2016-Apr-22 22:33N 40°43' E 027°44'1817.9
2016-Apr-22 21:32N 40°40' E 028°08'3718.4
2016-Apr-22 19:32N 40°45' E 028°56'1615.9
2016-Apr-22 18:30N 40°51' E 029°16'0 0.0
2016-Apr-22 17:28N 40°51' E 029°16'0 0.0
2016-Apr-22 16:27N 40°51' E 029°16'0 0.0
2016-Apr-22 15:33N 40°51' E 029°16'0 0.0
2016-Apr-22 14:32N 40°51' E 029°16'0 0.0
2016-Apr-22 13:32N 40°51' E 029°16'0 0.0
2016-Apr-22 12:32N 40°51' E 029°16'0 0.0
2016-Apr-22 11:31N 40°51' E 029°16'0 0.0
2016-Apr-22 10:31N 40°51' E 029°16'0 0.0
2016-Apr-22 09:30N 40°51' E 029°16'0 0.0
2016-Apr-22 08:30N 40°51' E 029°16'0 0.0
2016-Apr-22 07:29N 40°51' E 029°16'0 0.0
2016-Apr-22 06:29N 40°51' E 029°16'0 0.0
2016-Apr-22 05:29N 40°51' E 029°16'0 0.0
2016-Apr-22 04:28N 40°51' E 029°16'0 0.0
2016-Apr-22 03:28N 40°51' E 029°16'0 0.0
2016-Apr-22 02:33N 40°51' E 029°16'0 0.0
2016-Apr-22 01:33N 40°51' E 029°16'0 0.0
2016-Apr-22 00:32N 40°51' E 029°16'0 0.0
2016-Apr-21 23:32N 40°51' E 029°16'0 0.0
2016-Apr-21 22:31N 40°51' E 029°16'0 0.0
2016-Apr-21 21:31N 40°51' E 029°16'0 0.0
2016-Apr-21 20:31N 40°51' E 029°16'0 0.0
2016-Apr-21 19:30N 40°51' E 029°16'0 0.0
2016-Apr-21 18:30N 40°51' E 029°16'0 0.1
2016-Apr-21 15:16N 40°51' E 029°16'1114.7
2016-Apr-21 14:33N 40°47' E 029°03'26215.2
2016-Apr-20 21:22N 38°01' E 024°41'1417.2
2016-Apr-20 20:34N 37°49' E 024°33'2317.4
2016-Apr-20 19:15N 37°29' E 024°19'1217.6
2016-Apr-20 18:32N 37°19' E 024°09'1717.8
2016-Apr-20 17:34N 37°05' E 023°56'2518.1
2016-Apr-20 16:10N 36°45' E 023°37'17915.4
2016-Apr-20 04:31N 38°08' E 020°17'  

Dump ship's entire track history